Okay Dursun

Scout - Konyaspor
22 Feb 2028
Dienstag
Verarbeitung

Persönlichkeit

Anpassungsfähigkeit (19) Ehrgeiz (13) Kontroverse (11) Loyalität (20) Druck (14) Professionalität (2) Fairness (13) Temperament (14)

Profil

Trainerstil Demokratisch
Lizenz Kontinentale A
Entschlossenheit 12
Menschenführung 4
Motivation 4
Disziplin 8
Arbeitszufriedenheit
87%
Ermüdung
0%
Rolle Scout
Gehalt 17.7K p/W
Vertrag 14.03.2029

Leistung

Verhalten Gut
Trainingseffektivität
33%
Spielerentwicklung
35%
Verletzungsprävention
25%
Taktische Umsetzung
30%

Letzte Ereignisse

Nahm an einer Scouting-Besprechung teil jetzt
Empfahl ein Transferziel jetzt
Empfahl ein Transferziel jetzt
Empfahl ein Transferziel 7T her
Nahm an einer Scouting-Besprechung teil 7T her
Spieler begutachtet 7T her
Spiel beobachtet 7T her
Spieler begutachtet 7T her

Aktuell beobachtet

175
Spieler Verein Status Fähigkeit Vertrauen Beobachtet Zuletzt beobachtet Letzte Stimme
Trey Nyoni Rotherham United Aktiv 141 / 142 40% 4 20.02.2028 -
Ronan Kpakio Cardiff City Aktiv 125 / 134 40% 6 20.02.2028 -
Jorthy Mokio ADO Den Haag Aktiv 131 / 133 40% 2 20.02.2028 -
Eduardo Felicíssimo Sporting CP Aktiv 116 / 123 40% 2 16.02.2028 -
Dmitry Pestryakov Dinamo Moscow Aktiv 105 / 126 40% 6 16.02.2028 -
Giovanni Leoni Bradford City Aktiv 148 / 139 40% 4 16.02.2028 -
Joel McGregor Swindon Town Aktiv 103 / 98 40% 4 14.02.2028 -
Esquerdinha Shrewsbury Town Aktiv 127 / 126 40% 1 14.02.2028 -
Kauã Moraes Cruzeiro Aktiv 115 / 123 40% 4 13.02.2028 -
Noahkai Banks Hamburger SV Aktiv 133 / 142 40% 1 13.02.2028 -
Salvador Blopá Casa Pia Aktiv 127 / 119 40% 1 12.02.2028 -
Ernie Weaver AFC Wimbledon Aktiv 122 / 119 40% 1 11.02.2028 -
Ignacio Fernández Boston River Aktiv 84 / 110 40% 4 08.02.2028 -
Pape Diong Westerlo Aktiv 114 / 130 40% 1 08.02.2028 -
Jan Bürger Gillingham Aktiv 123 / 127 40% 7 07.02.2028 -
Daniel Banjaqui Benfica Aktiv 123 / 130 40% 1 07.02.2028 -
Kutlwano Letlhaku Ajax Cape Town Aktiv 121 / 135 40% 1 01.02.2028 -
Ryan Kavuma-McQueen Accrington Stanley Aktiv 123 / 123 40% 1 01.02.2028 -
Amar Memić Nacional Aktiv 127 / 128 62% 1 17.01.2028 Befürworten
Guilherme Ankaragucu Verloren 117 / 120 65% 1 07.01.2028 Befürworten
Caleb Yirenkyi Coventry City Aktiv 138 / 139 40% 8 03.01.2028 Beobachten
Héctor Fort Real Sociedad Aktiv 148 / 141 40% 3 03.01.2028 -
Luis Vidal Deportivo Pereira Aktiv 91 / 99 40% 1 03.01.2028 -
Jayden Danns Wigan Athletic Aktiv 141 / 141 40% 1 03.01.2028 -
Seb Ferdinand Chesterfield Aktiv 108 / 130 40% 1 03.01.2028 -
Ayden Heaven Luton Town Aktiv 142 / 149 40% 3 07.12.2027 -
Sebastián Ramírez Jaguares Aktiv 116 / 103 40% 5 07.12.2027 -
Bahia Criciuma Aktiv 116 / 119 40% 3 05.12.2027 -
Jaydee Canvot AJ Auxerre Aktiv 145 / 149 40% 1 05.12.2027 -
Hosea Michael Remo Stars Aktiv 97 / 87 40% 2 04.12.2027 -
Marvelous Freedom Ikorodu City Aktiv 81 / 99 40% 3 04.12.2027 -
Bautista Reinhardt Hrvatski Dragovoljac Aktiv 95 / 88 40% 1 04.12.2027 -
Fillip Jenssen Riise Stabaek Aktiv 101 / 113 40% 1 03.12.2027 -
Luis Otávio Colorado Rapids Aktiv 123 / 115 40% 3 01.12.2027 -
Matteo Pérez Vinlöf Dinamo Zagreb Aktiv 139 / 132 40% 3 29.11.2027 -
Jhon Cortez Barranquilla Aktiv 76 / 93 40% 1 29.11.2027 -
Matías Canedo Rampla Juniors Aktiv 98 / 79 40% 2 28.11.2027 -
Mads Bomholt Stabaek Aktiv 109 / 108 40% 4 27.11.2027 -
Samuel Posada Leones Aktiv 75 / 91 40% 1 27.11.2027 -
Tiago Gordillo San Miguel Aktiv 99 / 94 40% 4 26.11.2027 -
Celías Ingenthron Vélez Aktiv 106 / 111 40% 1 26.11.2027 -
Tyson Pearce St. Louis CITY SC Aktiv 82 / 91 40% 2 25.11.2027 -
Juan Morán Godoy Cruz Aktiv 120 / 104 40% 5 25.11.2027 -
Josh Nichols Tranmere Rovers Aktiv 128 / 121 40% 2 24.11.2027 -
Mikkel Hope Haugesund Aktiv 90 / 98 40% 4 22.11.2027 -
David Valencia Alianza Petrolera Aktiv 120 / 125 40% 6 21.11.2027 -
Mauro Carrizo Atlético Tucumán Aktiv 95 / 119 40% 1 21.11.2027 -
Christos Mouzakitis Hull City Aktiv 130 / 138 40% 11 19.11.2027 -
Colin Guske Orlando City Aktiv 86 / 104 40% 2 19.11.2027 -
Saba Kharebashvili LOSC Lille Aktiv 123 / 136 40% 1 18.11.2027 -
Gift Udoh Ikorodu City Aktiv 75 / 80 40% 3 11.11.2027 -
Harbor Miller LA Galaxy Aktiv 111 / 101 40% 1 11.11.2027 -
Joel Ezra Enyimba Aktiv 101 / 112 40% 3 09.11.2027 -
Godwin Oham Warri Wolves Aktiv 83 / 79 40% 2 09.11.2027 -
Juan Camilo Córdoba Deportivo Pereira Aktiv 77 / 83 40% 3 08.11.2027 -
José Correa Deportivo Tachira Aktiv 83 / 111 40% 1 08.11.2027 -
Ricky Atletico Venezuela Aktiv 94 / 106 40% 5 07.11.2027 -
Lucas Camejo River Plate Aktiv 73 / 104 40% 1 07.11.2027 -
Hervin Goyes Deportivo Pasto Aktiv 111 / 105 40% 3 05.11.2027 -
David Damboama El-Kanemi Warriors Aktiv 75 / 77 40% 1 05.11.2027 -
Julián Bazán Philadelphia Union Aktiv 104 / 113 40% 1 04.11.2027 -
Jovan Milosavljević Kalmar FF Aktiv 105 / 114 40% 1 16.10.2027 -
Olaniyi Saheed Kwara United Aktiv 101 / 112 40% 3 12.10.2027 -
Esteban de Lima Tacuarembo Aktiv 102 / 101 40% 4 11.10.2027 -
Jofrank Istifanus Nasarawa United Aktiv 92 / 98 40% 1 05.10.2027 -
Issa Yusuf Shooting Stars Aktiv 99 / 96 40% 1 04.10.2027 -
Diego Vargas San Marcos de Arica Aktiv 98 / 102 40% 1 17.09.2027 -
Pedro Soma San Diego Football Club Aktiv 101 / 122 40% 1 14.09.2027 -
Nika Kvaratskhelia Tskhinvali Aktiv 83 / 95 40% 1 14.09.2027 -
Gadiel Paoli River Plate Aktiv 87 / 106 40% 2 13.09.2027 -
Juan Diego Perdomo Depor Aktiv 87 / 79 40% 1 09.09.2027 -
Alejandro Almaraz Nueva Chicago Aktiv 114 / 107 40% 1 08.09.2027 -
Archie Gray Derby County Aktiv 141 / 158 40% 1 08.09.2027 -
Juan Giménez Celta Aktiv 121 / 125 40% 2 10.08.2027 -
Ali Fidan Adana Demirspor Aktiv 86 / 93 40% 1 10.08.2027 -
Dylan Lawlor Cardiff City Aktiv 123 / 131 40% 4 06.07.2027 -
Davide Bartesaghi AC Milan Aktiv 135 / 144 40% 3 06.07.2027 -
Cheveyo Tsawa Club Brugge Aktiv 115 / 126 40% 4 05.07.2027 -
Riley Owen Trento Aktiv 112 / 117 40% 3 05.07.2027 -
Samuel Lucero Defensa y Justicia Aktiv 129 / 110 40% 1 05.07.2027 -
Keagan Tau Ajax Cape Town Aktiv 83 / 91 40% 3 04.07.2027 -
Daniel Vernattus Metalist Aktiv 96 / 91 40% 3 04.07.2027 -
Jofre Torrents Ajax Aktiv 131 / 139 40% 6 02.07.2027 -
Tiago Freitas Benfica Aktiv 107 / 117 40% 5 01.07.2027 -
Eddy Kouadio Crotone Aktiv 107 / 111 40% 2 01.07.2027 -
Sascha Britschgi Padova Aktiv 116 / 134 40% 2 30.06.2027 -
Daniel Kelly Oxford United Aktiv 120 / 125 40% 3 30.06.2027 -
Baran Gezek Alanyaspor Aktiv 99 / 106 40% 2 30.06.2027 -
Leandro Martins Benfica Aktiv 96 / 97 40% 4 25.06.2027 -
Darryl Bakola Padova Aktiv 105 / 125 40% 2 25.06.2027 -
Mauricio Amaro Atlanta United FC Aktiv 138 / 123 40% 1 25.06.2027 -
Amadou Niang Al Ain Aktiv 120 / 110 40% 2 24.06.2027 -
Ianis Hagi Alanyaspor Aktiv 125 / 133 65% 1 21.06.2027 Befürworten
Kazunari Kita Real Sociedad Aktiv 99 / 101 40% 2 19.06.2027 -
Gonçalo Oliveira Benfica Aktiv 109 / 120 40% 2 19.06.2027 -
Keagan Phiri Platinum Stars Aktiv 93 / 105 40% 3 15.06.2027 -
Zaïd BafdilI Sporting CP Aktiv 96 / 104 40% 1 14.06.2027 -
Valentin Atangana Al-Ahli Aktiv 136 / 147 40% 3 11.06.2027 -
Adam Bakoune Ospitaletto Aktiv 89 / 101 40% 1 11.06.2027 -
Mpho Khethang AS Police Aktiv 82 / 77 40% 1 07.06.2027 -
Pedro de la Vega FC Dallas Aktiv 133 / 134 66% 1 01.06.2027 Befürworten
Tiago Djaló Besiktas Aktiv 143 / 125 40% 10 30.05.2027 -
Bosun Lawal Stoke City Aktiv 135 / 124 40% 5 30.05.2027 -
Noah Sadiki Sunderland Aktiv 141 / 142 40% 2 29.05.2027 -
Alfie Doughty Millwall Aktiv 136 / 123 40% 1 29.05.2027 -
Teden Mengi Luton Town Aktiv 130 / 132 40% 1 29.05.2027 -
Sidny Lopes Cabral Trabzonspor Aktiv 140 / 130 40% 8 27.05.2027 -
Will Fish Cardiff City Aktiv 122 / 127 40% 3 26.05.2027 -
Tommaso Pobega Bologna Aktiv 146 / 132 40% 1 26.05.2027 -
Milan van Ewijk Mansfield Town Aktiv 127 / 123 40% 3 25.05.2027 -
Lewis Bate Stockport County Aktiv 129 / 127 40% 1 25.05.2027 -
Habib Diarra Sunderland Aktiv 143 / 138 40% 4 24.05.2027 -
Callum Doyle Wrexham Aktiv 131 / 132 40% 3 23.05.2027 -
Oliver Skipp Leicester City Aktiv 127 / 128 40% 1 23.05.2027 -
Drissa Camara Gaziantep Aktiv 132 / 126 40% 2 22.05.2027 -
Daniel Tonoli Modena Aktiv 122 / 121 40% 1 22.05.2027 -
Festy Ebosele Basaksehir Aktiv 130 / 131 40% 7 19.05.2027 -
Bobby Thomas Coventry City Aktiv 141 / 136 40% 3 19.05.2027 -
Ethan Galbraith Swansea City Aktiv 127 / 130 40% 3 19.05.2027 -
Max Bird Birmingham Aktiv 134 / 137 40% 7 18.05.2027 -
Ilario Monterisi Frosinone Aktiv 129 / 134 40% 3 18.05.2027 -
Tim Jabol-Folcarelli Kayserispor Aktiv 130 / 132 40% 2 17.05.2027 -
Mamadou Sangaré Brentford Aktiv 144 / 149 40% 1 16.05.2027 -
Oumar Solet Udinese Aktiv 152 / 141 40% 3 15.05.2027 -
Lucas Da Cunha Como Aktiv 149 / 141 40% 1 13.05.2027 Mehr Infos nötig
Jacob Greaves Ipswich Town Aktiv 135 / 139 40% 2 11.05.2027 -
Harry Clarke Preston Aktiv 122 / 133 40% 5 09.05.2027 -
Shea Charles Southampton Aktiv 130 / 138 40% 3 08.05.2027 -
Jacques Ekomié Wrexham Aktiv 137 / 126 40% 3 07.05.2027 -
Orkun Kökçü Besiktas Aktiv 157 / 153 40% 1 07.05.2027 -
Juan Miranda Bologna Aktiv 136 / 132 40% 2 06.05.2027 -
Justin Devenny Stoke City Aktiv 132 / 129 40% 1 05.05.2027 -
Femi Seriki Sheffield United Aktiv 132 / 132 40% 1 05.05.2027 -
Di'Shon Bernard Sheffield Wednesday Aktiv 130 / 121 40% 2 04.05.2027 -
Darlin Yongwa Norwich City Aktiv 122 / 121 40% 2 04.05.2027 -
Tariq Lamptey Queens Park Rangers Aktiv 128 / 134 40% 2 03.05.2027 -
Aidan Morris Middlesbrough Aktiv 124 / 133 40% 1 30.04.2027 -
Florentino Luís Ipswich Town Aktiv 138 / 135 40% 3 26.04.2027 -
Adam Randell Bristol City Aktiv 127 / 133 40% 3 26.04.2027 -
Josh Edwards Charlton Athletic Aktiv 123 / 124 40% 2 26.04.2027 -
Welington Southampton Aktiv 132 / 134 40% 2 23.04.2027 -
Lewis Ferguson Bologna Aktiv 149 / 143 40% 2 23.04.2027 -
Dennis Cirkin Queens Park Rangers Aktiv 136 / 121 40% 2 18.04.2027 -
Ronnie Edwards Queens Park Rangers Aktiv 123 / 138 40% 1 17.04.2027 -
Kristoffer Lund Birmingham Aktiv 124 / 131 40% 1 13.04.2027 -
Wagner Pina Trabzonspor Aktiv 129 / 135 40% 1 10.04.2027 -
Christian Krasnodar Aktiv 129 / 145 40% 2 07.04.2027 -
Filippo Ranocchia Palermo Aktiv 122 / 136 40% 1 05.04.2027 -
Jack Currie Oxford United Aktiv 114 / 114 40% 2 04.04.2027 -
Leif Davis Ipswich Town Aktiv 133 / 130 40% 1 04.04.2027 -
Kellen Fisher Norwich City Aktiv 114 / 123 40% 2 03.04.2027 -
Batista Mendy Trabzonspor Aktiv 139 / 132 40% 1 02.04.2027 -
Emirhan Başyiğit Sivasspor Aktiv 110 / 115 40% 2 01.04.2027 -
Toby Collyer West Bromwich Albion Aktiv 129 / 138 40% 1 01.04.2027 -
Percy Jali Free State Stars Aktiv 95 / 110 40% 5 31.03.2027 -
Christ Inao Oulaï Fiorentina Aktiv 140 / 132 40% 2 27.03.2027 -
Josh Tymon Swansea City Aktiv 130 / 115 40% 2 27.03.2027 -
Nicolas Madsen Queens Park Rangers Aktiv 123 / 128 40% 1 27.03.2027 -
Daniel Costa Sporting CP Aktiv 90 / 107 40% 1 19.03.2027 -
Matías Gómez Granada Aktiv 121 / 118 40% 2 18.03.2027 -
David Ozoh Derby County Aktiv 121 / 125 40% 1 16.03.2027 -
Hlompho Lorch Ajax Cape Town Aktiv 88 / 108 40% 2 12.03.2027 -
Hamish Douglas Grimsby Town Aktiv 90 / 101 40% 1 11.03.2027 -
Felix Afful Liberty Professionals Aktiv 73 / 75 40% 1 05.03.2027 -
Cemran Dansin Orlando Pirates Aktiv 118 / 125 40% 1 05.03.2027 -
Matvey Kislyak CSKA Moscow Aktiv 130 / 150 40% 1 04.03.2027 -
Vasilije Novičić IMT Aktiv 105 / 120 40% 1 01.03.2027 -
Sergi Domínguez Dinamo Zagreb Aktiv 115 / 138 40% 1 10.11.2026 -
Philippe Ndinga Philadelphia Union Aktiv 126 / 118 40% 1 08.11.2026 -
Émile Fontaine Chamois Niortais Aktiv 121 / 128 40% 1 03.11.2026 -
Abdoulkarim Traoré Al Ain Aktiv 127 / 132 40% 1 12.10.2026 -
Filip Lissah Swansea City Aktiv 101 / 118 40% 1 09.10.2026 -
Majid Rezaeian Rah Ahan Aktiv 109 / 103 40% 1 08.10.2026 -
Nikita Stoinov Dinamo Bucharest Aktiv 111 / 111 40% 1 11.09.2026 -
Felipe Obradovich Ferro Carril Oeste Aktiv 119 / 112 40% 1 10.09.2026 -